Time;durP1;ratioP1;P1;durP2;ratioP2;P2;SDS_P1;SDS_P2;PMS_P1;PMS_P2;Temp;Humidity;BMP_temperature;BMP_pressure;BME280_temperature;BME280_humidity;BME280_pressure;Samples;Min_cycle;Max_cycle;Signal;HPM_P1;HPM_P2
2022/08/13 00:01:13;;;;;;;1999.90;999.90;;;18.80;99.90;;;;;;5097568;28;20048;-75
2022/08/13 00:03:40;;;;;;;1999.90;999.90;;;18.80;99.90;;;;;;5090430;28;20059;-76
2022/08/13 00:06:08;;;;;;;1999.90;999.90;;;18.80;99.90;;;;;;5108397;28;20047;-76
2022/08/13 00:08:35;;;;;;;1999.90;999.90;;;18.70;99.90;;;;;;5089124;28;20404;-80
2022/08/13 00:11:05;;;;;;;1999.90;999.90;;;18.70;99.90;;;;;;5089540;28;20055;-76
2022/08/13 00:13:31;;;;;;;1999.90;999.90;;;18.60;99.90;;;;;;5112955;28;20050;-85
2022/08/13 00:15:59;;;;;;;1999.90;999.90;;;18.60;99.90;;;;;;5111157;28;20074;-76
2022/08/13 00:18:29;;;;;;;;;;;18.60;99.90;;;;;;5096547;28;20048;-76
2022/08/13 00:20:58;;;;;;;1999.90;999.90;;;18.50;99.90;;;;;;5111555;28;20311;-77
2022/08/13 00:23:27;;;;;;;1999.90;999.90;;;18.50;99.90;;;;;;5100611;28;20048;-77
2022/08/13 00:25:58;;;;;;;1999.90;999.90;;;18.50;99.90;;;;;;5108190;28;20047;-76
2022/08/13 00:28:28;;;;;;;1999.90;999.90;;;18.50;99.90;;;;;;5106574;28;20047;-76
2022/08/13 00:30:55;;;;;;;1999.90;999.90;;;18.40;99.90;;;;;;5108789;28;20062;-76
2022/08/13 00:33:22;;;;;;;1999.90;999.90;;;18.40;99.90;;;;;;5109734;28;20035;-76
2022/08/13 00:35:50;;;;;;;1999.90;999.90;;;18.40;99.90;;;;;;5110590;28;20040;-81
2022/08/13 00:38:29;;;;;;;1999.90;902.63;;;18.30;99.90;;;;;;5111990;28;20040;-78
2022/08/13 00:40:58;;;;;;;1999.90;999.90;;;18.30;99.90;;;;;;5106414;28;20047;-75
2022/08/13 00:43:32;;;;;;;1999.90;999.90;;;18.30;99.90;;;;;;5094792;28;20082;-76
2022/08/13 00:45:59;;;;;;;1999.90;999.90;;;18.30;99.90;;;;;;5110710;28;20085;-77
2022/08/13 00:51:26;;;;;;;1999.90;999.90;;;18.20;99.90;;;;;;5053313;28;20048;-77
2022/08/13 00:53:54;;;;;;;1999.90;999.90;;;18.20;99.90;;;;;;5094706;28;20072;-77
2022/08/13 00:56:22;;;;;;;1999.90;999.90;;;18.20;99.90;;;;;;5109287;28;20100;-80
2022/08/13 00:58:49;;;;;;;1999.90;999.90;;;18.10;99.90;;;;;;5107769;28;20075;-77
2022/08/13 01:01:15;;;;;;;1999.90;999.90;;;18.10;99.90;;;;;;5086787;28;20059;-77
2022/08/13 01:03:42;;;;;;;1999.90;999.90;;;18.10;99.90;;;;;;5096333;28;20516;-86
2022/08/13 01:06:08;;;;;;;1999.90;999.90;;;18.10;99.90;;;;;;5080427;28;20059;-81
2022/08/13 01:08:40;;;;;;;1999.90;999.90;;;18.00;99.90;;;;;;5091948;28;20053;-76
2022/08/13 01:11:13;;;;;;;1999.90;999.90;;;18.00;99.90;;;;;;5100176;28;20541;-84
2022/08/13 01:13:41;;;;;;;1999.90;999.90;;;18.00;99.90;;;;;;5107701;28;20105;-77
2022/08/13 01:16:14;;;;;;;1999.90;999.90;;;18.00;99.90;;;;;;5111758;28;20039;-77
2022/08/13 01:18:46;;;;;;;1999.90;999.90;;;18.00;99.90;;;;;;5101001;28;20054;-84
2022/08/13 01:21:21;;;;;;;1999.90;999.90;;;18.00;99.90;;;;;;5110810;28;20071;-76
2022/08/13 01:23:50;;;;;;;1999.90;999.90;;;17.90;99.90;;;;;;5109359;28;20055;-76
2022/08/13 01:26:19;;;;;;;1999.90;999.90;;;18.00;99.90;;;;;;5089403;28;20059;-77
2022/08/13 01:28:47;;;;;;;1999.90;999.90;;;17.90;99.90;;;;;;5087452;28;20047;-76
2022/08/13 01:31:15;;;;;;;1999.90;999.90;;;17.90;99.90;;;;;;5111049;28;20459;-76
2022/08/13 01:33:43;;;;;;;1999.90;999.90;;;17.90;99.90;;;;;;5111612;28;20044;-77
2022/08/13 01:36:10;;;;;;;1999.90;999.90;;;17.90;99.90;;;;;;5103046;28;20044;-82
2022/08/13 01:38:38;;;;;;;1999.90;999.90;;;17.80;99.90;;;;;;5095885;28;20455;-80
2022/08/13 01:41:08;;;;;;;1999.90;999.90;;;17.80;99.90;;;;;;5108452;28;20080;-76
2022/08/13 01:43:37;;;;;;;1999.90;999.90;;;17.80;99.90;;;;;;5101273;28;20054;-76
2022/08/13 01:46:06;;;;;;;1999.90;999.90;;;17.80;99.90;;;;;;5111688;28;20050;-76
2022/08/13 01:51:31;;;;;;;1999.90;999.90;;;17.70;99.90;;;;;;5081107;28;20052;-76
2022/08/13 01:53:58;;;;;;;1999.90;999.90;;;17.60;99.90;;;;;;5087646;28;20052;-76
2022/08/13 01:56:24;;;;;;;1999.90;999.90;;;17.60;99.90;;;;;;5098716;28;20044;-77
2022/08/13 01:58:52;;;;;;;1999.90;999.90;;;17.60;99.90;;;;;;5089611;28;20440;-76
2022/08/13 02:01:25;;;;;;;1999.90;999.90;;;17.60;99.90;;;;;;5111907;28;20043;-77
2022/08/13 02:03:51;;;;;;;1999.90;999.90;;;17.50;99.90;;;;;;5088986;28;20407;-86
2022/08/13 02:06:28;;;;;;;1999.90;999.90;;;17.50;99.90;;;;;;5100354;28;20040;-76
2022/08/13 02:08:58;;;;;;;1999.90;999.90;;;17.50;99.90;;;;;;5102732;28;20040;-76
2022/08/13 02:11:24;;;;;;;1999.90;999.90;;;17.50;99.90;;;;;;5111872;28;20043;-76
2022/08/13 02:13:53;;;;;;;1999.90;999.90;;;17.50;99.90;;;;;;5089511;28;20104;-78
2022/08/13 02:16:19;;;;;;;1999.90;999.90;;;17.40;99.90;;;;;;5105744;28;20042;-76
2022/08/13 02:18:45;;;;;;;1999.90;999.90;;;17.40;99.90;;;;;;5102587;28;20051;-85
2022/08/13 02:21:11;;;;;;;1943.20;999.90;;;17.30;99.90;;;;;;5092855;28;20117;-77
2022/08/13 02:23:37;;;;;;;1999.90;999.90;;;17.30;99.90;;;;;;5092636;28;20048;-76
2022/08/13 02:26:06;;;;;;;1999.90;999.90;;;17.30;99.90;;;;;;5099782;28;20059;-83
2022/08/13 02:28:39;;;;;;;1999.90;999.90;;;17.30;99.90;;;;;;5100775;28;20058;-76
2022/08/13 02:31:07;;;;;;;1999.90;999.90;;;17.30;99.90;;;;;;5108271;28;20641;-76
2022/08/13 02:33:37;;;;;;;1999.90;999.90;;;17.30;99.90;;;;;;5109098;28;20395;-76
2022/08/13 02:36:10;;;;;;;1999.90;999.90;;;17.20;99.90;;;;;;5105931;28;20510;-76
2022/08/13 02:38:38;;;;;;;1987.50;999.90;;;17.20;99.90;;;;;;5078654;28;20058;-76
2022/08/13 02:43:50;;;;;;;1999.90;999.90;;;17.20;99.90;;;;;;5100640;28;20054;-76
2022/08/13 02:46:16;;;;;;;1999.90;999.90;;;17.20;99.90;;;;;;5110952;28;20054;-76
2022/08/13 02:48:43;;;;;;;1999.90;999.90;;;17.10;99.90;;;;;;5097910;28;20043;-76
2022/08/13 02:51:12;;;;;;;1999.90;999.90;;;17.10;99.90;;;;;;5091676;28;20122;-79
2022/08/13 02:53:41;;;;;;;1999.90;999.90;;;17.10;99.90;;;;;;5090525;28;20051;-76
2022/08/13 02:56:08;;;;;;;1999.90;999.90;;;17.10;99.90;;;;;;5095931;28;20694;-80
2022/08/13 02:58:39;;;;;;;1999.90;999.90;;;17.10;99.90;;;;;;5105935;28;20047;-76
2022/08/13 03:01:05;;;;;;;1999.90;999.90;;;17.10;99.90;;;;;;5105846;28;20134;-78
2022/08/13 03:03:31;;;;;;;1999.90;999.90;;;17.10;99.90;;;;;;5109550;28;20083;-76
2022/08/13 03:05:58;;;;;;;1999.90;999.90;;;17.00;99.90;;;;;;5109839;28;20128;-77
2022/08/13 03:08:27;;;;;;;1999.90;999.90;;;17.00;99.90;;;;;;5101957;28;20044;-80
2022/08/13 03:10:54;;;;;;;1999.90;999.90;;;17.00;99.90;;;;;;5088250;28;20050;-77
2022/08/13 03:13:24;;;;;;;1999.90;999.90;;;16.90;99.90;;;;;;5111239;28;20040;-76
2022/08/13 03:15:52;;;;;;;1999.90;999.90;;;16.90;99.90;;;;;;5092818;28;20052;-85
2022/08/13 03:18:18;;;;;;;1999.90;999.90;;;16.90;99.90;;;;;;5100157;28;20415;-80
2022/08/13 03:20:44;;;;;;;1999.90;999.90;;;16.80;99.90;;;;;;5100226;28;20044;-76
2022/08/13 03:23:10;;;;;;;1999.90;999.90;;;16.90;99.90;;;;;;5105304;28;20047;-76
2022/08/13 03:25:37;;;;;;;1502.53;999.38;;;16.70;99.90;;;;;;5077783;28;20130;-76
2022/08/13 03:28:05;;;;;;;1999.90;999.90;;;16.80;99.90;;;;;;5107796;28;20039;-76
2022/08/13 03:30:34;;;;;;;1999.90;999.90;;;16.70;99.90;;;;;;5107880;28;20044;-84
2022/08/13 03:33:06;;;;;;;1999.90;999.90;;;16.70;99.90;;;;;;5101592;28;20083;-76
2022/08/13 03:35:31;;;;;;;1988.22;969.67;;;16.70;99.90;;;;;;5097777;28;20039;-76
2022/08/13 03:37:57;;;;;;;1999.90;997.97;;;16.70;99.90;;;;;;5106489;28;20059;-76
2022/08/13 03:40:25;;;;;;;1999.90;999.90;;;16.70;99.90;;;;;;5101532;28;20048;-76
2022/08/13 03:42:52;;;;;;;1999.90;999.90;;;16.60;99.90;;;;;;5101999;28;20040;-84
2022/08/13 03:45:20;;;;;;;1928.55;999.85;;;16.60;99.90;;;;;;5089337;28;20067;-76
2022/08/13 03:47:46;;;;;;;1999.90;999.90;;;16.60;99.90;;;;;;5107795;28;20130;-76
2022/08/13 03:50:14;;;;;;;1999.90;999.90;;;16.60;99.90;;;;;;5109196;28;20124;-76
2022/08/13 03:52:40;;;;;;;;;;;16.50;99.90;;;;;;5108785;28;20044;-81
2022/08/13 03:55:09;;;;;;;1783.50;999.90;;;16.50;99.90;;;;;;5106741;28;19962;-85
2022/08/13 03:57:40;;;;;;;1999.90;999.90;;;16.50;99.90;;;;;;5111151;28;20479;-79
2022/08/13 04:00:11;;;;;;;1809.45;998.33;;;16.50;99.90;;;;;;5110317;28;20070;-75
2022/08/13 04:02:41;;;;;;;1538.55;978.67;;;16.50;99.90;;;;;;5094657;28;20054;-77
2022/08/13 04:05:16;;;;;;;1922.32;999.90;;;16.50;99.90;;;;;;5089478;28;20079;-79
2022/08/13 04:07:45;;;;;;;1999.90;999.90;;;16.40;99.90;;;;;;5100180;28;20074;-76
2022/08/13 04:10:12;;;;;;;1999.90;999.90;;;16.40;99.90;;;;;;5103954;28;20384;-76
2022/08/13 04:12:38;;;;;;;1512.32;999.40;;;16.40;99.90;;;;;;5105467;28;20527;-81
2022/08/13 04:15:06;;;;;;;1999.90;999.90;;;16.40;99.90;;;;;;5111137;28;20044;-76
2022/08/13 04:17:36;;;;;;;1730.40;998.47;;;16.40;99.90;;;;;;5110046;28;20062;-76
2022/08/13 04:20:07;;;;;;;1999.90;999.90;;;16.40;99.90;;;;;;5107999;28;20538;-76
2022/08/13 04:22:33;;;;;;;1999.90;999.90;;;16.40;99.90;;;;;;5092323;28;20044;-76
2022/08/13 04:24:59;;;;;;;1717.05;996.40;;;16.40;99.90;;;;;;5109873;28;20039;-81
2022/08/13 04:27:25;;;;;;;1797.65;999.90;;;16.40;99.90;;;;;;5089497;28;20048;-76
2022/08/13 04:29:55;;;;;;;1516.53;993.85;;;16.40;99.90;;;;;;5088424;28;20043;-76
2022/08/13 04:32:23;;;;;;;1562.30;999.90;;;16.40;99.90;;;;;;5107582;28;20126;-76
2022/08/13 04:34:48;;;;;;;1999.90;999.90;;;16.40;99.90;;;;;;5099771;28;20048;-77
2022/08/13 04:37:14;;;;;;;1967.78;999.90;;;16.40;99.90;;;;;;5085701;28;20043;-82
2022/08/13 04:39:40;;;;;;;1664.40;999.90;;;16.40;99.90;;;;;;5083124;28;20044;-76
2022/08/13 04:42:07;;;;;;;1942.18;999.90;;;16.40;99.90;;;;;;5110049;28;20043;-76
2022/08/13 04:44:34;;;;;;;1999.90;999.90;;;16.40;99.90;;;;;;5092235;28;20127;-76
2022/08/13 04:46:59;;;;;;;1164.23;981.97;;;16.40;99.90;;;;;;5109127;28;20036;-86
2022/08/13 04:49:25;;;;;;;1738.35;999.90;;;16.40;99.90;;;;;;5106607;28;20346;-77
2022/08/13 04:51:51;;;;;;;1680.32;999.90;;;16.30;99.90;;;;;;5109226;28;20043;-77
2022/08/13 04:54:19;;;;;;;1933.53;999.90;;;16.30;99.90;;;;;;5109825;28;20046;-77
2022/08/13 04:56:46;;;;;;;1999.90;999.90;;;16.30;99.90;;;;;;5106239;28;20063;-81
2022/08/13 04:59:12;;;;;;;1786.68;999.90;;;16.40;99.90;;;;;;5100982;28;20553;-76
2022/08/13 05:01:38;;;;;;;1999.90;999.90;;;16.40;99.90;;;;;;5107736;28;20052;-76
2022/08/13 05:04:05;;;;;;;1302.40;964.08;;;16.40;99.90;;;;;;5103245;28;20044;-77
2022/08/13 05:06:30;;;;;;;1989.45;999.90;;;16.40;99.90;;;;;;5096668;28;20048;-80
2022/08/13 05:08:59;;;;;;;1999.90;999.90;;;16.40;99.90;;;;;;5085442;28;20119;-77
2022/08/13 05:11:25;;;;;;;1999.90;999.90;;;16.40;99.90;;;;;;5108352;28;20039;-77
2022/08/13 05:13:51;;;;;;;1739.68;999.90;;;16.40;99.90;;;;;;5105758;28;20044;-76
2022/08/13 05:16:18;;;;;;;1895.10;999.90;;;16.40;99.90;;;;;;5107607;28;20066;-79
2022/08/13 05:18:50;;;;;;;1516.90;993.93;;;16.40;99.90;;;;;;5101992;28;20043;-77
2022/08/13 05:21:16;;;;;;;1760.35;999.90;;;16.40;99.90;;;;;;5109312;28;20419;-76
2022/08/13 05:23:42;;;;;;;1488.68;991.25;;;16.50;99.90;;;;;;5087894;28;20054;-77
2022/08/13 05:26:10;;;;;;;1376.97;970.40;;;16.50;99.90;;;;;;5105859;28;20036;-77
2022/08/13 05:28:37;;;;;;;1999.90;999.90;;;16.50;99.90;;;;;;5096305;28;20047;-81
2022/08/13 05:31:03;;;;;;;1915.40;999.90;;;16.50;99.90;;;;;;5108591;28;20062;-85
2022/08/13 05:33:30;;;;;;;1987.55;999.90;;;16.60;99.90;;;;;;5110022;28;20511;-79
2022/08/13 05:35:59;;;;;;;1999.90;999.90;;;16.60;99.90;;;;;;5112127;28;20081;-77
2022/08/13 05:38:27;;;;;;;1662.85;999.90;;;16.60;99.90;;;;;;5103935;28;20036;-77
2022/08/13 05:40:54;;;;;;;1505.72;999.90;;;16.60;99.90;;;;;;5110205;28;20391;-77
2022/08/13 05:43:23;;;;;;;1999.90;999.90;;;16.70;99.90;;;;;;5110966;28;20618;-80
2022/08/13 05:45:58;;;;;;;1999.90;999.90;;;16.70;99.90;;;;;;5110339;28;20441;-77
2022/08/13 05:48:26;;;;;;;1951.35;999.90;;;16.80;99.90;;;;;;5089733;28;20036;-77
2022/08/13 05:50:52;;;;;;;1999.90;999.90;;;16.80;99.90;;;;;;5073155;28;20056;-77
2022/08/13 05:53:18;;;;;;;1999.90;999.90;;;16.80;99.90;;;;;;5105769;28;20044;-80
2022/08/13 05:55:44;;;;;;;1491.18;999.90;;;16.90;99.90;;;;;;5112781;28;20052;-76
2022/08/13 05:58:12;;;;;;;1304.60;981.03;;;17.00;99.90;;;;;;5094008;28;20043;-82
2022/08/13 06:03:27;;;;;;;1006.63;908.80;;;17.20;99.90;;;;;;5105978;28;20053;-77
2022/08/13 06:05:59;;;;;;;955.60;873.17;;;17.40;99.90;;;;;;5101794;28;20050;-77
2022/08/13 06:08:35;;;;;;;1684.80;999.90;;;17.50;99.90;;;;;;5090270;28;20051;-77
2022/08/13 06:11:04;;;;;;;1736.68;999.90;;;17.60;99.90;;;;;;5060638;28;20043;-77
2022/08/13 06:13:31;;;;;;;1846.88;999.90;;;17.80;99.90;;;;;;5100730;28;20069;-77
2022/08/13 06:16:00;;;;;;;1385.57;975.97;;;17.90;99.90;;;;;;5101262;28;20048;-77
2022/08/13 06:18:31;;;;;;;1856.18;999.90;;;17.90;99.90;;;;;;5090102;28;20043;-77
2022/08/13 06:20:59;;;;;;;1059.20;894.92;;;18.00;99.90;;;;;;5105411;28;20077;-77
2022/08/13 06:23:25;;;;;;;;;;;18.10;99.90;;;;;;5107460;28;20050;-77
2022/08/13 06:25:53;;;;;;;814.92;750.65;;;18.20;99.90;;;;;;5102420;28;19926;-77
2022/08/13 06:28:25;;;;;;;1171.97;914.75;;;18.30;99.90;;;;;;5098911;28;20492;-80
2022/08/13 06:30:53;;;;;;;1999.90;999.90;;;18.30;99.90;;;;;;5108636;28;20048;-77
2022/08/13 06:33:21;;;;;;;1224.50;960.33;;;18.30;99.90;;;;;;5102400;28;20051;-77
2022/08/13 06:35:49;;;;;;;;;;;18.40;99.90;;;;;;5096084;28;20129;-78
2022/08/13 06:38:17;;;;;;;624.83;580.03;;;18.50;99.90;;;;;;5086460;28;19919;-77
2022/08/13 06:40:45;;;;;;;1832.28;997.38;;;18.60;99.90;;;;;;5107329;28;20039;-77
2022/08/13 06:43:13;;;;;;;1448.00;993.33;;;18.70;99.90;;;;;;5080420;28;20396;-85
2022/08/13 06:45:42;;;;;;;749.28;694.33;;;18.70;99.90;;;;;;5085643;28;20036;-77
2022/08/13 06:48:09;;;;;;;893.90;809.53;;;18.80;99.90;;;;;;5092831;28;20097;-77
2022/08/13 06:50:35;;;;;;;1178.85;949.75;;;18.90;99.90;;;;;;5082820;28;20060;-86
2022/08/13 06:53:08;;;;;;;1039.93;875.55;;;19.10;99.90;;;;;;5105890;28;20032;-77
2022/08/13 06:55:36;;;;;;;830.55;762.75;;;19.30;99.90;;;;;;5107126;28;20051;-77
2022/08/13 06:58:09;;;;;;;826.92;759.80;;;19.50;99.90;;;;;;5112147;28;20144;-78
2022/08/13 07:00:38;;;;;;;735.88;676.58;;;19.70;99.90;;;;;;5110035;28;20054;-77
2022/08/13 07:03:05;;;;;;;816.10;750.10;;;19.90;99.90;;;;;;5112574;28;20048;-77
2022/08/13 07:05:41;;;;;;;762.75;709.78;;;20.10;99.90;;;;;;5094341;28;20047;-77
2022/08/13 07:08:11;;;;;;;1942.05;999.90;;;20.20;99.90;;;;;;5112286;28;20040;-81
2022/08/13 07:10:46;;;;;;;939.60;857.30;;;20.50;99.90;;;;;;5105903;28;20040;-77
2022/08/13 07:13:12;;;;;;;862.75;796.92;;;20.60;99.90;;;;;;5114478;28;20071;-77
2022/08/13 07:15:38;;;;;;;934.40;860.40;;;20.70;99.90;;;;;;5116154;28;20083;-77
2022/08/13 07:18:07;;;;;;;976.08;897.60;;;20.80;90.10;;;;;;5116030;28;20043;-77
2022/08/13 07:20:36;;;;;;;997.92;913.83;;;21.10;81.60;;;;;;5112052;28;20127;-77
2022/08/13 07:23:01;;;;;;;1086.82;973.38;;;21.30;42.60;;;;;;5103077;28;20044;-77
2022/08/13 07:25:30;;;;;;;1123.07;999.90;;;21.60;30.80;;;;;;5114062;28;20126;-77
2022/08/13 07:27:58;;;;;;;1175.03;999.90;;;21.60;48.70;;;;;;5116559;28;20082;-78
2022/08/13 07:30:25;;;;;;;1003.08;895.70;;;22.20;47.30;;;;;;5092643;28;20457;-79
2022/08/13 07:32:52;;;;;;;1252.65;731.67;;;24.10;56.70;;;;;;5075713;28;20043;-83
2022/08/13 07:35:18;;;;;;;1999.90;999.90;;;25.90;1.00;;;;;;5115153;28;20085;-78
2022/08/13 07:37:45;;;;;;;1999.90;999.90;;;27.50;1.00;;;;;;5092643;28;20071;-77
2022/08/13 07:40:12;;;;;;;1999.90;999.90;;;28.80;1.00;;;;;;5106972;28;20123;-78
2022/08/13 07:42:40;;;;;;;1999.90;999.90;;;30.20;1.00;;;;;;5094754;28;20048;-78
2022/08/13 07:45:10;;;;;;;698.30;638.97;;;30.90;1.00;;;;;;5094972;28;20113;-77
2022/08/13 07:47:40;;;;;;;359.95;336.67;;;31.70;1.00;;;;;;5060152;28;20152;-77
2022/08/13 07:50:11;;;;;;;1999.90;999.90;;;32.30;1.00;;;;;;5095386;28;20130;-77
2022/08/13 07:52:38;;;;;;;772.08;695.40;;;33.30;1.00;;;;;;5095438;28;20283;-77
2022/08/13 07:55:05;;;;;;;531.72;480.92;;;33.50;1.00;;;;;;5076132;28;20052;-78
2022/08/13 07:57:32;;;;;;;465.90;430.85;;;33.80;1.00;;;;;;5094976;28;20540;-77
2022/08/13 07:59:58;;;;;;;333.25;311.52;;;34.70;99.90;;;;;;5110198;28;20092;-79
2022/08/13 08:02:28;;;;;;;456.55;423.95;;;35.00;99.90;;;;;;5115553;28;20040;-78
2022/08/13 08:04:57;;;;;;;893.30;810.67;;;35.50;99.90;;;;;;5115228;28;20048;-80
2022/08/13 08:07:25;;;;;;;309.05;290.50;;;36.20;99.90;;;;;;5115279;28;20050;-78
2022/08/13 08:09:53;;;;;;;215.05;202.40;;;36.00;99.90;;;;;;5097421;28;20052;-78
2022/08/13 08:12:38;;;;;;;268.52;251.02;;;35.90;99.90;;;;;;5114881;28;20048;-81
2022/08/13 08:15:07;;;;;;;254.98;240.43;;;35.90;99.90;;;;;;5115443;28;20055;-78
2022/08/13 08:17:33;;;;;;;208.88;196.80;;;36.30;99.90;;;;;;5101529;28;20384;-78
2022/08/13 08:20:03;;;;;;;794.67;718.67;;;36.60;99.90;;;;;;5094902;28;20139;-79
2022/08/13 08:22:30;;;;;;;279.45;262.27;;;37.40;99.90;;;;;;5094778;28;20054;-77
2022/08/13 08:24:57;;;;;;;329.38;309.48;;;37.70;99.90;;;;;;5093779;28;20056;-78
2022/08/13 08:27:26;;;;;;;381.85;355.98;;;37.80;99.90;;;;;;5094165;28;20488;-78
2022/08/13 08:29:52;;;;;;;295.35;277.15;;;38.40;99.90;;;;;;5077078;28;20044;-79
2022/08/13 08:32:19;;;;;;;284.58;266.48;;;38.20;99.90;;;;;;5094928;28;20085;-78
2022/08/13 08:34:47;;;;;;;1999.90;999.90;;;38.10;99.90;;;;;;5076716;28;20051;-78
2022/08/13 08:42:56;;;;;;;198.18;186.38;;;39.70;99.90;;;;;;5094483;28;20526;-78
2022/08/13 08:45:24;;;;;;;475.77;444.48;;;39.70;99.90;;;;;;5094204;28;20058;-78
2022/08/13 08:47:52;;;;;;;383.85;359.25;;;38.90;99.90;;;;;;5076531;28;20059;-78
2022/08/13 08:50:26;;;;;;;308.10;287.92;;;38.70;99.90;;;;;;5076787;28;20461;-80
2022/08/13 08:55:38;;;;;;;151.15;141.85;;;38.30;99.90;;;;;;5092981;28;20055;-78
2022/08/13 08:58:06;;;;;;;268.67;252.07;;;38.40;99.90;;;;;;5093862;28;20047;-79
2022/08/13 09:00:36;;;;;;;256.98;241.48;;;38.80;99.90;;;;;;5109611;28;20058;-78
2022/08/13 09:03:03;;;;;;;244.63;230.07;;;38.70;99.90;;;;;;5094776;28;20044;-77
2022/08/13 09:05:29;;;;;;;170.05;159.68;;;39.60;99.90;;;;;;5093739;28;20043;-77
2022/08/13 09:07:55;;;;;;;331.83;311.83;;;39.60;99.90;;;;;;5076280;28;20044;-77
2022/08/13 09:10:22;;;;;;;317.40;298.50;;;40.30;99.90;;;;;;5093457;28;20052;-77
2022/08/13 09:12:50;;;;;;;171.43;159.98;;;40.90;99.90;;;;;;5094521;28;20070;-77
2022/08/13 09:15:23;;;;;;;142.32;133.88;;;40.90;99.90;;;;;;5076212;28;20113;-77
2022/08/13 09:17:53;;;;;;;283.55;266.15;;;41.40;99.90;;;;;;5093909;28;20044;-77
2022/08/13 09:20:24;;;;;;;252.45;236.93;;;39.90;99.90;;;;;;5093795;28;20105;-77
2022/08/13 09:23:07;;;;;;;195.10;183.57;;;39.70;99.90;;;;;;5093579;28;20043;-76
2022/08/13 09:25:35;;;;;;;247.75;232.40;;;39.90;99.90;;;;;;5092222;28;20461;-77
2022/08/13 09:28:03;;;;;;;310.20;290.90;;;40.40;99.90;;;;;;5093651;28;20048;-79
2022/08/13 09:30:30;;;;;;;183.73;172.93;;;40.30;99.90;;;;;;5093202;28;20043;-77
2022/08/13 09:32:57;;;;;;;330.92;310.23;;;40.70;99.90;;;;;;5093940;28;20106;-77
2022/08/13 09:35:25;;;;;;;382.42;355.15;;;40.20;99.90;;;;;;5092169;28;20120;-86
2022/08/13 09:37:58;;;;;;;639.10;587.35;;;40.10;99.90;;;;;;5093549;28;20044;-77
2022/08/13 09:40:32;;;;;;;347.20;324.75;;;39.80;99.90;;;;;;5092159;28;20491;-87
2022/08/13 09:43:06;;;;;;;379.85;354.63;;;39.50;99.90;;;;;;5093822;28;20052;-76
2022/08/13 09:45:33;;;;;;;494.73;462.63;;;39.00;99.90;;;;;;5093122;28;20044;-76
2022/08/13 09:47:59;;;;;;;;;;;39.20;99.90;;;;;;5076237;28;20086;-78
2022/08/13 09:50:25;;;;;;;434.15;403.17;;;39.20;99.90;;;;;;5092767;28;19928;-79
2022/08/13 09:52:56;;;;;;;281.63;263.30;;;39.20;99.90;;;;;;5093389;28;20040;-77
2022/08/13 09:55:25;;;;;;;304.92;285.70;;;39.00;99.90;;;;;;5092193;28;20135;-77
2022/08/13 09:57:59;;;;;;;184.10;173.20;;;39.50;99.90;;;;;;5093178;28;20048;-77
2022/08/13 10:00:31;;;;;;;418.33;391.33;;;40.00;99.90;;;;;;5089798;28;20102;-87
2022/08/13 10:03:00;;;;;;;514.50;477.08;;;40.20;99.90;;;;;;5093299;28;20083;-76
2022/08/13 10:05:34;;;;;;;229.60;215.68;;;39.00;99.90;;;;;;5092386;28;20117;-86
2022/08/13 10:08:12;;;;;;;361.55;337.75;;;39.30;99.90;;;;;;5093142;28;20484;-76
2022/08/13 10:10:38;;;;;;;341.85;321.35;;;39.10;99.90;;;;;;5091716;28;20051;-76
2022/08/13 10:13:04;;;;;;;322.77;302.80;;;39.60;99.90;;;;;;5093031;28;20044;-77
2022/08/13 10:15:30;;;;;;;455.23;426.17;;;40.70;99.90;;;;;;5092569;28;20122;-76
2022/08/13 10:18:00;;;;;;;473.27;442.87;;;40.10;99.90;;;;;;5092811;28;20105;-76
2022/08/13 10:20:37;;;;;;;526.28;492.92;;;39.00;99.90;;;;;;5092677;28;20163;-77
2022/08/13 10:23:09;;;;;;;383.27;359.17;;;39.00;99.90;;;;;;5092840;28;20048;-77
2022/08/13 10:25:39;;;;;;;387.65;363.65;;;39.50;99.90;;;;;;5091658;28;20040;-76
2022/08/13 10:28:15;;;;;;;412.90;386.00;;;40.00;99.90;;;;;;5092462;28;20496;-76
2022/08/13 10:30:42;;;;;;;483.92;452.13;;;39.40;99.90;;;;;;5091970;28;20048;-77
2022/08/13 10:33:09;;;;;;;356.95;334.42;;;39.70;99.90;;;;;;5092790;28;20067;-78
2022/08/13 10:35:35;;;;;;;365.58;341.65;;;39.50;99.90;;;;;;5091731;28;20442;-76
2022/08/13 10:38:00;;;;;;;480.60;447.70;;;39.40;99.90;;;;;;5092781;28;20051;-77
2022/08/13 10:40:27;;;;;;;404.73;379.97;;;38.30;99.90;;;;;;5091745;28;20282;-77
2022/08/13 10:42:53;;;;;;;438.80;410.95;;;38.70;99.90;;;;;;5092645;28;20052;-77
2022/08/13 10:45:26;;;;;;;331.77;311.15;;;38.80;99.90;;;;;;5092327;28;20477;-77
2022/08/13 10:47:54;;;;;;;458.02;426.92;;;39.10;99.90;;;;;;5092042;28;20083;-76
2022/08/13 10:50:29;;;;;;;474.63;442.42;;;39.70;99.90;;;;;;5092539;28;20048;-77
2022/08/13 10:53:00;;;;;;;317.88;298.10;;;39.50;99.90;;;;;;5092210;28;20044;-78
2022/08/13 10:55:27;;;;;;;434.17;404.42;;;40.00;99.90;;;;;;5091076;28;20075;-77
2022/08/13 10:57:55;;;;;;;392.58;367.55;;;40.50;99.90;;;;;;5074018;28;20097;-77
2022/08/13 11:00:21;;;;;;;406.48;381.42;;;40.80;99.90;;;;;;5110000;28;20044;-78
2022/08/13 11:02:49;;;;;;;403.57;378.80;;;40.30;99.90;;;;;;5112113;28;20050;-77
2022/08/13 11:05:16;;;;;;;457.65;429.05;;;40.90;99.90;;;;;;5112447;28;20047;-77
2022/08/13 11:07:47;;;;;;;370.00;346.73;;;39.90;99.90;;;;;;5093577;28;20105;-77
2022/08/13 11:10:14;;;;;;;384.00;359.95;;;40.10;99.90;;;;;;5091354;28;20473;-77
2022/08/13 11:12:50;;;;;;;445.88;417.75;;;40.30;99.90;;;;;;5091937;28;20055;-77
2022/08/13 11:15:20;;;;;;;353.48;331.75;;;40.60;99.90;;;;;;5091813;28;20436;-77
2022/08/13 11:17:51;;;;;;;494.75;462.15;;;39.80;99.90;;;;;;5091862;28;20451;-77
2022/08/13 11:20:19;;;;;;;326.52;306.35;;;39.30;99.90;;;;;;5092141;28;20400;-76
2022/08/13 11:22:50;;;;;;;322.92;302.85;;;39.70;99.90;;;;;;5057095;28;20044;-77
2022/08/13 11:25:16;;;;;;;316.98;297.77;;;40.00;99.90;;;;;;5091309;28;20050;-77
2022/08/13 11:27:42;;;;;;;374.55;349.88;;;40.70;99.90;;;;;;5091730;28;20127;-77
2022/08/13 11:30:09;;;;;;;397.77;371.43;;;40.40;99.90;;;;;;5092143;28;20132;-77
2022/08/13 11:32:35;;;;;;;730.45;661.95;;;39.50;99.90;;;;;;5091285;28;20492;-80
2022/08/13 11:35:02;;;;;;;;;;;40.30;99.90;;;;;;5092550;28;20087;-77
2022/08/13 11:37:28;;;;;;;466.85;436.65;;;40.10;99.90;;;;;;5073354;28;19923;-77
2022/08/13 11:39:53;;;;;;;331.93;311.70;;;39.90;99.90;;;;;;5091323;28;20044;-77
2022/08/13 11:42:19;;;;;;;364.37;341.07;;;40.70;99.90;;;;;;5073271;28;20048;-77
2022/08/13 11:44:44;;;;;;;422.63;394.60;;;41.30;99.90;;;;;;5091601;28;20059;-78
2022/08/13 11:47:10;;;;;;;253.80;238.67;;;41.40;99.90;;;;;;5091854;28;20051;-77
2022/08/13 11:49:36;;;;;;;403.00;378.10;;;41.20;99.90;;;;;;5056793;28;20518;-88
2022/08/13 11:52:02;;;;;;;371.20;347.23;;;41.30;99.90;;;;;;5091694;28;20044;-77
2022/08/13 11:54:27;;;;;;;243.48;229.35;;;41.40;99.90;;;;;;5091062;28;20048;-77
2022/08/13 11:56:53;;;;;;;373.17;350.57;;;41.40;99.90;;;;;;5056359;28;20473;-77
2022/08/13 11:59:19;;;;;;;279.27;262.60;;;41.40;99.90;;;;;;5084352;28;20044;-77
2022/08/13 12:01:44;;;;;;;477.73;445.57;;;41.40;99.90;;;;;;5097218;28;20043;-77
2022/08/13 12:04:12;;;;;;;444.93;416.47;;;41.20;99.90;;;;;;5115704;28;20047;-80
2022/08/13 12:06:39;;;;;;;355.40;333.60;;;41.80;99.90;;;;;;5115096;28;20061;-80
2022/08/13 12:09:04;;;;;;;321.88;302.42;;;42.90;99.90;;;;;;5115362;28;20134;-77
2022/08/13 12:11:32;;;;;;;309.73;290.30;;;43.20;99.90;;;;;;5080174;28;20126;-79
2022/08/13 12:13:57;;;;;;;284.80;267.75;;;43.50;99.90;;;;;;5096915;28;20322;-83
2022/08/13 12:16:23;;;;;;;332.77;310.57;;;42.50;99.90;;;;;;5111675;28;20040;-77
2022/08/13 12:18:49;;;;;;;306.08;288.25;;;41.60;99.90;;;;;;5094419;28;20043;-77
2022/08/13 12:21:15;;;;;;;228.47;215.20;;;41.20;99.90;;;;;;5076900;28;20464;-77
2022/08/13 12:23:40;;;;;;;309.40;291.30;;;39.80;99.90;;;;;;5094115;28;20059;-77
2022/08/13 12:26:06;;;;;;;293.30;276.70;;;38.40;99.90;;;;;;5094686;28;20044;-77
2022/08/13 12:28:32;;;;;;;296.43;279.47;;;37.60;99.90;;;;;;5094645;28;20048;-77
2022/08/13 12:31:00;;;;;;;323.55;301.85;;;36.70;99.90;;;;;;5076629;28;20120;-76